Time;durP1;ratioP1;P1;durP2;ratioP2;P2;SDS_P1;SDS_P2;PMS_P1;PMS_P2;Temp;Humidity;BMP_temperature;BMP_pressure;BME280_temperature;BME280_humidity;BME280_pressure;Samples;Min_cycle;Max_cycle;Signal;HPM_P1;HPM_P2
2023/03/24 00:02:08;;;;;;;3.17;2.00;;;;;;;;;;5080257;28;20484;-64
2023/03/24 00:04:35;;;;;;;4.03;2.13;;;;;;;;;;5082232;28;20482;-64
2023/03/24 00:07:02;;;;;;;5.93;2.60;;;;;;;;;;5080979;28;20495;-64
2023/03/24 00:09:29;;;;;;;5.43;2.20;;;;;;;;;;5081098;28;20456;-64
2023/03/24 00:11:55;;;;;;;3.20;2.47;;;;;;;;;;5080821;28;20472;-64
2023/03/24 00:14:23;;;;;;;4.03;1.90;;;;;;;;;;5082092;28;20448;-64
2023/03/24 00:16:50;;;;;;;2.97;1.90;;;;;;;;;;5080819;28;20484;-64
2023/03/24 00:19:17;;;;;;;5.60;2.57;;;;;;;;;;5080961;28;20487;-64
2023/03/24 00:21:44;;;;;;;8.07;3.03;;;;;;;;;;5080825;28;20480;-64
2023/03/24 00:24:11;;;;;;;2.33;1.87;;;;;;;;;;5081510;28;20448;-64
2023/03/24 00:26:39;;;;;;;5.53;2.07;;;;;;;;;;5079465;28;20475;-64
2023/03/24 00:29:06;;;;;;;7.10;2.23;;;;;;;;;;5081516;28;20460;-64
2023/03/24 00:31:38;;;;;;;4.47;1.80;;;;;;;;;;5080681;28;20480;-64
2023/03/24 00:34:06;;;;;;;3.17;2.20;;;;;;;;;;5080960;28;20440;-64
2023/03/24 00:36:32;;;;;;;2.90;2.00;;;;;;;;;;5080176;28;20487;-64
2023/03/24 00:38:59;;;;;;;3.30;1.97;;;;;;;;;;5073591;28;20491;-64
2023/03/24 00:41:26;;;;;;;2.23;1.77;;;;;;;;;;5078998;28;20495;-64
2023/03/24 00:43:54;;;;;;;4.90;2.50;;;;;;;;;;5081014;28;20459;-64
2023/03/24 00:46:27;;;;;;;4.00;1.90;;;;;;;;;;5080012;28;21055;-64
2023/03/24 00:49:01;;;;;;;2.67;1.90;;;;;;;;;;5080924;28;20463;-64
2023/03/24 00:51:28;;;;;;;6.93;3.27;;;;;;;;;;5080273;28;20546;-64
2023/03/24 00:53:56;;;;;;;7.00;2.50;;;;;;;;;;5081146;28;20961;-65
2023/03/24 00:56:23;;;;;;;8.67;2.37;;;;;;;;;;5079422;28;20500;-65
2023/03/24 00:58:50;;;;;;;3.20;1.90;;;;;;;;;;5080315;28;20853;-64
2023/03/24 01:01:16;;;;;;;5.00;2.00;;;;;;;;;;5078991;28;20480;-64
2023/03/24 01:03:47;;;;;;;3.77;2.10;;;;;;;;;;5080882;28;20766;-64
2023/03/24 01:06:14;;;;;;;3.67;1.90;;;;;;;;;;5077972;28;20487;-65
2023/03/24 01:08:41;;;;;;;4.07;1.90;;;;;;;;;;5080521;28;20673;-64
2023/03/24 01:11:07;;;;;;;4.93;3.50;;;;;;;;;;5080040;28;20480;-64
2023/03/24 01:13:34;;;;;;;2.70;1.87;;;;;;;;;;5080176;28;20468;-64
2023/03/24 01:16:00;;;;;;;4.30;2.10;;;;;;;;;;5080241;28;20480;-64
2023/03/24 01:18:27;;;;;;;2.47;2.10;;;;;;;;;;5079769;28;20518;-64
2023/03/24 01:20:54;;;;;;;2.90;2.50;;;;;;;;;;5079725;28;20499;-64
2023/03/24 01:23:23;;;;;;;7.67;2.47;;;;;;;;;;5080352;28;20463;-64
2023/03/24 01:26:03;;;;;;;6.03;2.30;;;;;;;;;;5079799;28;20530;-64
2023/03/24 01:28:30;;;;;;;4.20;2.60;;;;;;;;;;5078907;28;20467;-64
2023/03/24 01:30:59;;;;;;;2.07;1.83;;;;;;;;;;5079345;28;20484;-64
2023/03/24 01:33:26;;;;;;;3.87;1.83;;;;;;;;;;5080323;28;20529;-64
2023/03/24 01:35:52;;;;;;;2.90;2.23;;;;;;;;;;5078987;28;20480;-64
2023/03/24 01:38:19;;;;;;;2.30;1.67;;;;;;;;;;5079598;28;20456;-64
2023/03/24 01:40:47;;;;;;;2.30;1.93;;;;;;;;;;5079187;28;21090;-64
2023/03/24 01:43:16;;;;;;;3.23;1.83;;;;;;;;;;5080539;28;20455;-64
2023/03/24 01:45:54;;;;;;;3.57;1.70;;;;;;;;;;5079201;28;20910;-64
2023/03/24 01:48:22;;;;;;;2.83;1.73;;;;;;;;;;5080151;28;20464;-64
2023/03/24 01:50:50;;;;;;;2.37;1.77;;;;;;;;;;5079360;28;20471;-64
2023/03/24 01:53:17;;;;;;;2.60;1.87;;;;;;;;;;5080078;28;20460;-65
2023/03/24 01:55:45;;;;;;;2.40;1.97;;;;;;;;;;5079368;28;20872;-64
2023/03/24 01:58:13;;;;;;;3.30;1.67;;;;;;;;;;5079546;28;20626;-64
2023/03/24 02:00:40;;;;;;;2.27;1.70;;;;;;;;;;5079362;28;20880;-64
2023/03/24 02:03:08;;;;;;;2.20;1.80;;;;;;;;;;5080106;28;20944;-64
2023/03/24 02:05:36;;;;;;;2.40;2.07;;;;;;;;;;5067237;28;20464;-63
2023/03/24 02:08:05;;;;;;;1.97;1.60;;;;;;;;;;5079815;28;20525;-64
2023/03/24 02:10:34;;;;;;;2.43;1.60;;;;;;;;;;5078804;28;20472;-64
2023/03/24 02:13:03;;;;;;;1.93;1.73;;;;;;;;;;5080208;28;20781;-64
2023/03/24 02:15:31;;;;;;;1.70;1.57;;;;;;;;;;5079330;28;20468;-65
2023/03/24 02:18:02;;;;;;;2.80;2.33;;;;;;;;;;5080115;28;20521;-64
2023/03/24 02:20:43;;;;;;;3.00;1.50;;;;;;;;;;5079337;28;20476;-64
2023/03/24 02:23:29;;;;;;;2.70;1.70;;;;;;;;;;5080521;28;20474;-64
2023/03/24 02:26:18;;;;;;;3.23;2.00;;;;;;;;;;5080955;28;20525;-65
2023/03/24 02:28:48;;;;;;;3.87;1.80;;;;;;;;;;5083397;28;20481;-65
2023/03/24 02:31:29;;;;;;;2.20;2.00;;;;;;;;;;5080013;28;20538;-64
2023/03/24 02:34:26;;;;;;;3.33;2.17;;;;;;;;;;5066774;28;20902;-64
2023/03/24 02:37:13;;;;;;;2.90;2.20;;;;;;;;;;5077002;28;20476;-65
2023/03/24 02:39:59;;;;;;;3.80;2.00;;;;;;;;;;5043377;28;20913;-64
2023/03/24 02:42:33;;;;;;;3.33;2.60;;;;;;;;;;5071974;28;20561;-64
2023/03/24 02:45:04;;;;;;;4.20;2.33;;;;;;;;;;5083433;28;20474;-64
2023/03/24 02:47:33;;;;;;;2.80;2.50;;;;;;;;;;5082414;28;20475;-64
2023/03/24 02:50:04;;;;;;;3.63;2.63;;;;;;;;;;5083425;28;20970;-64
2023/03/24 02:52:34;;;;;;;3.87;2.30;;;;;;;;;;5082644;28;20483;-64
2023/03/24 02:55:04;;;;;;;3.80;2.53;;;;;;;;;;5082880;28;20483;-65
2023/03/24 02:57:32;;;;;;;1.60;1.40;;;;;;;;;;5081602;28;20511;-65
2023/03/24 03:00:00;;;;;;;2.60;1.97;;;;;;;;;;5082281;28;20496;-65
2023/03/24 03:02:29;;;;;;;2.57;2.37;;;;;;;;;;5081994;28;21059;-64
2023/03/24 03:04:59;;;;;;;3.40;2.13;;;;;;;;;;5073852;28;20448;-64
2023/03/24 03:07:29;;;;;;;4.70;2.27;;;;;;;;;;5081834;28;20491;-65
2023/03/24 03:09:57;;;;;;;2.87;2.50;;;;;;;;;;5082424;28;20467;-65
2023/03/24 03:12:27;;;;;;;2.73;2.50;;;;;;;;;;5081866;28;20466;-64
2023/03/24 03:14:56;;;;;;;2.50;2.30;;;;;;;;;;5083023;28;20452;-64
2023/03/24 03:17:24;;;;;;;4.80;2.63;;;;;;;;;;5081978;28;20541;-65
2023/03/24 03:19:54;;;;;;;2.63;2.43;;;;;;;;;;5082625;28;20537;-64
2023/03/24 03:22:22;;;;;;;3.23;2.43;;;;;;;;;;5082364;28;20507;-64
2023/03/24 03:24:51;;;;;;;3.30;2.30;;;;;;;;;;5082196;28;20530;-64
2023/03/24 03:27:20;;;;;;;3.63;2.53;;;;;;;;;;5072590;28;21027;-64
2023/03/24 03:29:53;;;;;;;3.80;2.67;;;;;;;;;;5082232;28;20771;-64
2023/03/24 03:32:23;;;;;;;3.13;2.20;;;;;;;;;;5082355;28;20495;-64
2023/03/24 03:34:52;;;;;;;3.07;2.33;;;;;;;;;;5082066;28;20520;-64
2023/03/24 03:37:22;;;;;;;3.03;2.70;;;;;;;;;;5081141;28;20506;-64
2023/03/24 03:39:50;;;;;;;3.17;2.87;;;;;;;;;;5082411;28;20496;-65
2023/03/24 03:42:16;;;;;;;3.17;2.53;;;;;;;;;;5081433;28;20488;-65
2023/03/24 03:44:43;;;;;;;4.30;2.70;;;;;;;;;;5082063;28;20452;-65
2023/03/24 03:47:11;;;;;;;4.37;3.20;;;;;;;;;;5081504;28;20479;-64
2023/03/24 03:49:37;;;;;;;4.00;2.90;;;;;;;;;;5081752;28;20456;-65
2023/03/24 03:52:04;;;;;;;2.63;2.20;;;;;;;;;;5082009;28;20547;-65
2023/03/24 03:54:33;;;;;;;4.03;3.07;;;;;;;;;;5078619;28;20443;-65
2023/03/24 03:56:59;;;;;;;3.50;2.70;;;;;;;;;;5080899;28;20544;-65
2023/03/24 03:59:27;;;;;;;3.13;2.27;;;;;;;;;;5081280;28;20545;-65
2023/03/24 04:01:55;;;;;;;3.20;2.90;;;;;;;;;;5080957;28;21004;-65
2023/03/24 04:04:37;;;;;;;4.10;3.33;;;;;;;;;;5082244;28;20533;-65
2023/03/24 04:07:12;;;;;;;4.77;3.80;;;;;;;;;;5079189;28;20831;-64
2023/03/24 04:09:46;;;;;;;4.30;2.90;;;;;;;;;;5081319;28;20447;-65
2023/03/24 04:12:21;;;;;;;6.00;3.17;;;;;;;;;;5077028;28;20475;-65
2023/03/24 04:15:01;;;;;;;2.80;2.60;;;;;;;;;;5080920;28;20456;-65
2023/03/24 04:17:37;;;;;;;5.13;3.40;;;;;;;;;;5077690;28;20502;-65
2023/03/24 04:20:10;;;;;;;3.97;3.20;;;;;;;;;;5081832;28;20510;-64
2023/03/24 04:22:41;;;;;;;3.37;3.07;;;;;;;;;;5080959;28;20499;-65
2023/03/24 04:25:11;;;;;;;9.20;3.20;;;;;;;;;;5080943;28;20478;-65
2023/03/24 04:27:39;;;;;;;4.23;3.10;;;;;;;;;;5080132;28;20448;-64
2023/03/24 04:30:13;;;;;;;3.30;3.00;;;;;;;;;;5079088;28;20483;-64
2023/03/24 04:32:42;;;;;;;3.00;2.70;;;;;;;;;;5080983;28;20476;-65
2023/03/24 04:35:13;;;;;;;3.90;2.83;;;;;;;;;;5080645;28;20470;-65
2023/03/24 04:37:40;;;;;;;3.70;3.23;;;;;;;;;;5081373;28;20480;-65
2023/03/24 04:40:09;;;;;;;3.67;3.23;;;;;;;;;;5080630;28;20487;-64
2023/03/24 04:42:36;;;;;;;3.10;2.80;;;;;;;;;;5072128;28;20464;-64
2023/03/24 04:45:03;;;;;;;3.37;3.07;;;;;;;;;;5081344;28;20486;-64
2023/03/24 04:47:32;;;;;;;3.80;2.83;;;;;;;;;;5080141;28;20487;-64
2023/03/24 04:50:02;;;;;;;4.30;2.93;;;;;;;;;;5080642;28;20965;-65
2023/03/24 04:52:29;;;;;;;3.00;2.70;;;;;;;;;;5079544;28;21201;-64
2023/03/24 04:54:56;;;;;;;4.43;3.30;;;;;;;;;;5079790;28;20484;-65
2023/03/24 04:57:22;;;;;;;4.60;3.03;;;;;;;;;;5079645;28;20550;-65
2023/03/24 04:59:49;;;;;;;3.57;3.00;;;;;;;;;;5080255;28;20488;-64
2023/03/24 05:02:16;;;;;;;3.60;3.30;;;;;;;;;;5079746;28;20966;-65
2023/03/24 05:04:42;;;;;;;3.57;2.97;;;;;;;;;;5080527;28;20488;-65
2023/03/24 05:07:09;;;;;;;2.73;2.53;;;;;;;;;;5079440;28;20925;-64
2023/03/24 05:09:36;;;;;;;4.23;3.30;;;;;;;;;;5079927;28;20519;-64
2023/03/24 05:12:03;;;;;;;3.00;2.70;;;;;;;;;;5080089;28;20555;-64
2023/03/24 05:14:29;;;;;;;6.37;3.30;;;;;;;;;;5080585;28;20771;-65
2023/03/24 05:16:56;;;;;;;3.53;3.23;;;;;;;;;;5079272;28;20481;-65
2023/03/24 05:19:22;;;;;;;3.67;3.37;;;;;;;;;;5078333;28;20545;-65
2023/03/24 05:21:48;;;;;;;3.20;2.90;;;;;;;;;;5077782;28;21008;-65
2023/03/24 05:24:15;;;;;;;3.83;2.87;;;;;;;;;;5080169;28;20516;-66
2023/03/24 05:26:43;;;;;;;4.47;4.07;;;;;;;;;;5074555;28;20555;-66
2023/03/24 05:29:09;;;;;;;3.10;2.80;;;;;;;;;;5078353;28;20539;-65
2023/03/24 05:31:35;;;;;;;6.30;3.80;;;;;;;;;;5073442;28;20480;-68
2023/03/24 05:34:02;;;;;;;3.70;2.97;;;;;;;;;;5078666;28;20490;-67
2023/03/24 05:36:28;;;;;;;3.90;3.00;;;;;;;;;;5075804;28;20502;-69
2023/03/24 05:38:55;;;;;;;3.60;3.10;;;;;;;;;;5079185;28;20480;-68
2023/03/24 05:41:21;;;;;;;4.60;3.50;;;;;;;;;;5077929;28;20514;-67
2023/03/24 05:43:49;;;;;;;4.67;3.30;;;;;;;;;;5078333;28;20497;-67
2023/03/24 05:46:15;;;;;;;5.90;3.47;;;;;;;;;;5076833;28;20499;-67
2023/03/24 05:48:42;;;;;;;4.17;3.53;;;;;;;;;;5078806;28;20731;-67
2023/03/24 05:51:09;;;;;;;4.33;3.93;;;;;;;;;;5077685;28;20480;-68
2023/03/24 05:53:35;;;;;;;4.63;4.23;;;;;;;;;;5071684;28;20463;-68
2023/03/24 05:56:02;;;;;;;3.90;3.60;;;;;;;;;;5078183;28;20563;-68
2023/03/24 05:58:28;;;;;;;4.50;4.10;;;;;;;;;;5078113;28;20505;-68
2023/03/24 06:00:56;;;;;;;5.10;3.27;;;;;;;;;;5079380;28;20526;-68
2023/03/24 06:03:22;;;;;;;3.40;3.10;;;;;;;;;;5082198;28;20466;-68
2023/03/24 06:05:49;;;;;;;3.80;3.40;;;;;;;;;;5081053;28;21063;-67
2023/03/24 06:08:17;;;;;;;4.17;3.80;;;;;;;;;;5080297;28;20933;-69
2023/03/24 06:10:44;;;;;;;5.77;4.10;;;;;;;;;;5081628;28;20477;-66
2023/03/24 06:13:10;;;;;;;4.43;4.00;;;;;;;;;;5082520;28;20517;-66
2023/03/24 06:15:38;;;;;;;5.60;3.97;;;;;;;;;;5081091;28;20467;-66
2023/03/24 06:18:07;;;;;;;4.67;4.23;;;;;;;;;;5079348;28;20464;-67
2023/03/24 06:20:34;;;;;;;4.80;4.27;;;;;;;;;;5081604;28;20467;-67
2023/03/24 06:23:01;;;;;;;4.80;4.10;;;;;;;;;;5080034;28;20451;-66
2023/03/24 06:25:28;;;;;;;5.50;4.43;;;;;;;;;;5081517;28;20468;-66
2023/03/24 06:27:55;;;;;;;5.37;4.60;;;;;;;;;;5081907;28;20458;-66
2023/03/24 06:30:24;;;;;;;5.17;4.37;;;;;;;;;;5077408;28;20919;-66
2023/03/24 06:32:50;;;;;;;4.37;3.87;;;;;;;;;;5078394;28;20517;-67
2023/03/24 06:35:18;;;;;;;3.87;3.30;;;;;;;;;;5079123;28;20483;-67
2023/03/24 06:37:45;;;;;;;3.40;2.20;;;;;;;;;;5080550;28;20503;-68
2023/03/24 06:40:14;;;;;;;2.43;1.83;;;;;;;;;;5079701;28;20548;-68
2023/03/24 06:42:41;;;;;;;3.17;1.50;;;;;;;;;;5079234;28;20460;-67
2023/03/24 06:45:08;;;;;;;1.40;0.80;;;;;;;;;;5080517;28;20460;-67
2023/03/24 06:47:34;;;;;;;1.00;0.90;;;;;;;;;;5080457;28;20546;-67
2023/03/24 06:50:00;;;;;;;1.07;0.87;;;;;;;;;;5079486;28;20517;-68
2023/03/24 06:52:28;;;;;;;2.53;0.97;;;;;;;;;;5080179;28;21068;-67
2023/03/24 06:54:56;;;;;;;2.30;1.10;;;;;;;;;;5079885;28;20484;-67
2023/03/24 06:57:22;;;;;;;3.70;1.03;;;;;;;;;;5078448;28;20483;-66
2023/03/24 06:59:49;;;;;;;4.47;1.00;;;;;;;;;;5079787;28;20448;-67
2023/03/24 07:02:16;;;;;;;3.47;1.00;;;;;;;;;;5080273;28;20479;-67
2023/03/24 07:04:42;;;;;;;2.23;1.10;;;;;;;;;;5079516;28;20708;-68
2023/03/24 07:07:09;;;;;;;2.47;1.20;;;;;;;;;;5079491;28;20512;-68
2023/03/24 07:09:37;;;;;;;3.83;1.37;;;;;;;;;;5079493;28;20448;-67
2023/03/24 07:12:04;;;;;;;2.23;1.33;;;;;;;;;;5078169;28;20583;-68
2023/03/24 07:14:31;;;;;;;2.90;1.20;;;;;;;;;;5080195;28;20487;-67
2023/03/24 07:16:58;;;;;;;2.83;1.20;;;;;;;;;;5073731;28;20999;-66
2023/03/24 07:19:24;;;;;;;2.23;1.10;;;;;;;;;;5080224;28;20517;-67
2023/03/24 07:21:51;;;;;;;5.37;1.50;;;;;;;;;;5080860;28;20522;-68
2023/03/24 07:24:17;;;;;;;4.23;2.07;;;;;;;;;;5081780;28;20457;-68
2023/03/24 07:26:45;;;;;;;3.80;1.57;;;;;;;;;;5079782;28;20515;-68
2023/03/24 07:29:12;;;;;;;2.70;1.50;;;;;;;;;;5081985;28;20459;-67
2023/03/24 07:31:39;;;;;;;4.10;1.53;;;;;;;;;;5080989;28;20488;-67
2023/03/24 07:34:06;;;;;;;5.20;1.73;;;;;;;;;;5080924;28;20448;-67
2023/03/24 07:36:32;;;;;;;3.93;1.80;;;;;;;;;;5081173;28;20483;-70
2023/03/24 07:38:58;;;;;;;5.50;1.97;;;;;;;;;;5081612;28;20483;-70
2023/03/24 07:41:26;;;;;;;2.53;1.57;;;;;;;;;;5080337;28;20483;-70
2023/03/24 07:43:54;;;;;;;5.77;2.20;;;;;;;;;;5082367;28;20456;-70
2023/03/24 07:46:20;;;;;;;6.10;2.30;;;;;;;;;;5081186;28;20836;-70
2023/03/24 07:48:47;;;;;;;4.67;2.20;;;;;;;;;;5081490;28;20510;-70
2023/03/24 07:51:13;;;;;;;6.77;4.13;;;;;;;;;;5081639;28;20500;-70
2023/03/24 07:53:40;;;;;;;9.83;2.63;;;;;;;;;;5082365;28;20479;-69
2023/03/24 07:56:06;;;;;;;6.37;2.43;;;;;;;;;;5079775;28;21008;-69
2023/03/24 07:58:33;;;;;;;4.10;2.60;;;;;;;;;;5081064;28;20447;-69
2023/03/24 08:01:03;;;;;;;6.90;2.40;;;;;;;;;;5080747;28;20512;-70
2023/03/24 08:03:30;;;;;;;4.33;2.40;;;;;;;;;;5074732;28;20540;-69
2023/03/24 08:05:56;;;;;;;5.53;2.33;;;;;;;;;;5080854;28;20555;-69
2023/03/24 08:08:23;;;;;;;5.37;2.60;;;;;;;;;;5080957;28;20456;-69
2023/03/24 08:10:50;;;;;;;7.83;2.53;;;;;;;;;;5079332;28;20503;-71
2023/03/24 08:13:16;;;;;;;5.20;2.47;;;;;;;;;;5080500;28;20543;-70
2023/03/24 08:15:43;;;;;;;6.13;2.97;;;;;;;;;;5080378;28;20729;-70
2023/03/24 08:18:11;;;;;;;5.57;2.77;;;;;;;;;;5080320;28;20520;-70
2023/03/24 08:20:37;;;;;;;6.20;2.90;;;;;;;;;;5079568;28;20484;-70
2023/03/24 08:23:07;;;;;;;8.03;3.80;;;;;;;;;;5079708;28;20468;-70
2023/03/24 08:25:34;;;;;;;6.30;2.60;;;;;;;;;;5080002;28;20494;-70
2023/03/24 08:28:01;;;;;;;9.50;3.33;;;;;;;;;;5079645;28;20465;-71
2023/03/24 08:30:28;;;;;;;11.53;3.50;;;;;;;;;;5079518;28;20498;-69
2023/03/24 08:32:55;;;;;;;9.80;3.13;;;;;;;;;;5080473;28;20460;-70
2023/03/24 08:35:23;;;;;;;6.40;2.90;;;;;;;;;;5078872;28;20484;-70
2023/03/24 08:37:50;;;;;;;11.10;3.50;;;;;;;;;;5080561;28;20468;-70
2023/03/24 08:40:19;;;;;;;9.73;3.33;;;;;;;;;;5079952;28;20468;-70
2023/03/24 08:42:48;;;;;;;7.63;2.53;;;;;;;;;;5069419;28;20472;-70
2023/03/24 08:45:14;;;;;;;6.30;2.50;;;;;;;;;;5080567;28;20524;-71
2023/03/24 08:47:41;;;;;;;7.30;2.67;;;;;;;;;;5080022;28;20523;-69
2023/03/24 08:50:08;;;;;;;5.70;2.40;;;;;;;;;;5078647;28;20532;-69
2023/03/24 08:52:35;;;;;;;5.67;2.70;;;;;;;;;;5080143;28;20467;-71
2023/03/24 08:55:02;;;;;;;6.43;1.90;;;;;;;;;;5079806;28;20835;-70
2023/03/24 08:57:29;;;;;;;8.50;2.37;;;;;;;;;;5078537;28;20472;-71
2023/03/24 08:59:55;;;;;;;5.30;2.73;;;;;;;;;;5079229;28;20467;-71
2023/03/24 09:02:22;;;;;;;7.07;1.90;;;;;;;;;;5079297;28;20504;-70
2023/03/24 09:04:52;;;;;;;4.80;2.27;;;;;;;;;;5080051;28;20472;-70
2023/03/24 09:07:19;;;;;;;6.43;2.73;;;;;;;;;;5079391;28;20488;-71
2023/03/24 09:09:46;;;;;;;8.10;2.43;;;;;;;;;;5080222;28;20468;-70
2023/03/24 09:12:13;;;;;;;7.03;2.77;;;;;;;;;;5078232;28;20475;-71
2023/03/24 09:14:39;;;;;;;5.50;2.00;;;;;;;;;;5080554;28;20452;-71
2023/03/24 09:17:06;;;;;;;5.80;2.47;;;;;;;;;;5079703;28;20949;-69
2023/03/24 09:19:32;;;;;;;3.80;2.23;;;;;;;;;;5079128;28;20483;-71
2023/03/24 09:21:59;;;;;;;8.13;2.80;;;;;;;;;;5078876;28;20480;-71
2023/03/24 09:24:26;;;;;;;6.70;2.80;;;;;;;;;;5080092;28;20988;-71
2023/03/24 09:26:53;;;;;;;7.77;2.27;;;;;;;;;;5078430;28;20602;-71
2023/03/24 09:29:20;;;;;;;5.77;1.93;;;;;;;;;;5078973;28;20467;-71
2023/03/24 09:31:46;;;;;;;6.50;2.40;;;;;;;;;;5078994;28;20483;-70
2023/03/24 09:34:13;;;;;;;10.90;2.90;;;;;;;;;;5078676;28;20582;-71
2023/03/24 09:36:39;;;;;;;5.47;3.20;;;;;;;;;;5078074;28;20514;-70
2023/03/24 09:39:06;;;;;;;3.30;1.97;;;;;;;;;;5079647;28;20492;-70
2023/03/24 09:41:32;;;;;;;5.63;2.47;;;;;;;;;;5076636;28;20623;-70
2023/03/24 09:44:02;;;;;;;7.20;1.73;;;;;;;;;;5079522;28;20503;-69
2023/03/24 09:46:31;;;;;;;10.47;2.20;;;;;;;;;;5078185;28;20859;-70
2023/03/24 09:48:58;;;;;;;3.90;2.00;;;;;;;;;;5078546;28;20484;-71
2023/03/24 09:51:25;;;;;;;6.77;2.00;;;;;;;;;;5078482;28;20950;-70
2023/03/24 09:53:54;;;;;;;8.23;2.60;;;;;;;;;;5079508;28;20477;-70
2023/03/24 09:56:22;;;;;;;6.53;2.33;;;;;;;;;;5077314;28;20526;-69
2023/03/24 09:58:51;;;;;;;3.70;1.63;;;;;;;;;;5078795;28;20462;-70
2023/03/24 10:01:20;;;;;;;9.73;2.20;;;;;;;;;;5078402;28;20471;-71
2023/03/24 10:03:46;;;;;;;6.80;2.07;;;;;;;;;;5079084;28;20447;-70
2023/03/24 10:06:17;;;;;;;4.00;1.80;;;;;;;;;;5079613;28;20483;-71
2023/03/24 10:08:44;;;;;;;7.63;1.93;;;;;;;;;;5078379;28;20825;-69
2023/03/24 10:11:16;;;;;;;2.87;1.47;;;;;;;;;;5077260;28;20468;-71
2023/03/24 10:13:50;;;;;;;9.43;2.80;;;;;;;;;;5079434;28;20471;-70
2023/03/24 10:16:21;;;;;;;6.40;2.00;;;;;;;;;;5079095;28;20487;-70
2023/03/24 10:18:52;;;;;;;7.50;1.90;;;;;;;;;;5077584;28;20480;-70
2023/03/24 10:21:20;;;;;;;8.40;1.90;;;;;;;;;;5077774;28;20484;-69
2023/03/24 10:23:49;;;;;;;8.87;1.90;;;;;;;;;;5078784;28;20452;-70
2023/03/24 10:26:24;;;;;;;8.80;1.87;;;;;;;;;;5077177;28;20472;-71
2023/03/24 10:28:51;;;;;;;5.80;1.80;;;;;;;;;;5078931;28;20459;-70
2023/03/24 10:31:19;;;;;;;6.03;2.00;;;;;;;;;;5077921;28;20483;-70
2023/03/24 10:33:46;;;;;;;8.37;2.10;;;;;;;;;;5078667;28;20471;-70
2023/03/24 10:36:16;;;;;;;7.80;2.30;;;;;;;;;;5077951;28;20510;-71
2023/03/24 10:38:43;;;;;;;8.23;2.00;;;;;;;;;;5079437;28;20456;-70
2023/03/24 10:41:15;;;;;;;6.10;1.40;;;;;;;;;;5076894;28;22364;-70
2023/03/24 10:43:42;;;;;;;6.80;2.07;;;;;;;;;;5079176;28;20551;-69
2023/03/24 10:46:09;;;;;;;7.60;1.90;;;;;;;;;;5079472;28;20999;-70
2023/03/24 10:48:42;;;;;;;7.93;1.47;;;;;;;;;;5081243;28;20587;-71
2023/03/24 10:51:12;;;;;;;4.40;1.70;;;;;;;;;;5082364;28;20981;-71
2023/03/24 10:53:40;;;;;;;5.47;1.70;;;;;;;;;;5082365;28;20862;-71
2023/03/24 10:56:07;;;;;;;3.63;1.50;;;;;;;;;;5080687;28;20472;-71
2023/03/24 10:58:36;;;;;;;4.47;1.80;;;;;;;;;;5082125;28;20455;-71
2023/03/24 11:01:03;;;;;;;4.43;1.50;;;;;;;;;;5080919;28;20483;-71
2023/03/24 11:03:31;;;;;;;3.60;1.43;;;;;;;;;;5081984;28;20455;-70
2023/03/24 11:05:58;;;;;;;9.67;2.03;;;;;;;;;;5082274;28;20567;-71
2023/03/24 11:08:27;;;;;;;7.67;1.80;;;;;;;;;;5082183;28;20460;-70
2023/03/24 11:10:55;;;;;;;9.53;1.63;;;;;;;;;;5075086;28;20484;-70
2023/03/24 11:13:27;;;;;;;5.63;1.33;;;;;;;;;;5082285;28;20474;-70
2023/03/24 11:15:56;;;;;;;5.50;1.60;;;;;;;;;;5081401;28;20503;-71
2023/03/24 11:18:22;;;;;;;5.23;1.23;;;;;;;;;;5080936;28;20556;-69
2023/03/24 11:20:52;;;;;;;5.77;1.30;;;;;;;;;;5081221;28;20511;-70
2023/03/24 11:23:20;;;;;;;4.30;1.43;;;;;;;;;;5081256;28;21007;-70
2023/03/24 11:25:49;;;;;;;7.00;1.50;;;;;;;;;;5080745;28;20490;-70
2023/03/24 11:28:18;;;;;;;6.80;1.40;;;;;;;;;;5081844;28;20470;-70
2023/03/24 11:30:45;;;;;;;5.83;1.30;;;;;;;;;;5080828;28;20559;-70
2023/03/24 11:33:13;;;;;;;5.27;1.53;;;;;;;;;;5081534;28;20448;-71
2023/03/24 11:35:41;;;;;;;5.50;1.83;;;;;;;;;;5080701;28;20467;-71
2023/03/24 11:38:07;;;;;;;5.80;1.63;;;;;;;;;;5080843;28;20464;-71
2023/03/24 11:40:34;;;;;;;5.30;1.60;;;;;;;;;;5081097;28;20475;-71
2023/03/24 11:43:02;;;;;;;6.10;1.50;;;;;;;;;;5080632;28;20518;-69
2023/03/24 11:45:35;;;;;;;6.97;2.60;;;;;;;;;;5081365;28;20495;-70
2023/03/24 11:48:05;;;;;;;5.57;1.53;;;;;;;;;;5082328;28;20451;-71
2023/03/24 11:50:33;;;;;;;6.33;1.60;;;;;;;;;;5081637;28;20529;-71
2023/03/24 11:53:02;;;;;;;7.40;1.97;;;;;;;;;;5081181;28;20448;-71
2023/03/24 11:55:34;;;;;;;6.83;1.50;;;;;;;;;;5081603;28;20652;-71
2023/03/24 11:58:02;;;;;;;5.73;1.67;;;;;;;;;;5080421;28;21008;-71
2023/03/24 12:00:33;;;;;;;7.77;1.90;;;;;;;;;;5079838;28;20475;-72
2023/03/24 12:03:04;;;;;;;5.03;1.63;;;;;;;;;;5075053;28;20514;-71
2023/03/24 12:05:32;;;;;;;5.17;1.57;;;;;;;;;;5076265;28;20499;-71
2023/03/24 12:08:10;;;;;;;3.23;1.17;;;;;;;;;;5080882;28;20460;-71
2023/03/24 12:10:40;;;;;;;3.90;1.33;;;;;;;;;;5081171;28;20476;-71
2023/03/24 12:13:10;;;;;;;6.07;1.70;;;;;;;;;;5080870;28;20923;-71
2023/03/24 12:15:40;;;;;;;5.03;1.90;;;;;;;;;;5080423;28;20475;-71
2023/03/24 12:18:15;;;;;;;5.83;1.70;;;;;;;;;;5080459;28;20454;-71
2023/03/24 12:20:47;;;;;;;3.90;1.70;;;;;;;;;;5080754;28;20472;-71
2023/03/24 12:23:18;;;;;;;4.33;1.80;;;;;;;;;;5080578;28;20476;-70
2023/03/24 12:25:55;;;;;;;4.57;1.83;;;;;;;;;;5080658;28;21015;-70
2023/03/24 12:28:29;;;;;;;5.67;1.23;;;;;;;;;;5081004;28;20857;-71
2023/03/24 12:31:03;;;;;;;6.33;1.83;;;;;;;;;;5079590;28;20475;-70
2023/03/24 12:33:36;;;;;;;9.43;1.70;;;;;;;;;;5080977;28;20455;-70
2023/03/24 12:36:11;;;;;;;5.13;1.77;;;;;;;;;;5080360;28;20480;-70
2023/03/24 12:38:43;;;;;;;4.00;1.40;;;;;;;;;;5080051;28;20471;-70
2023/03/24 12:41:24;;;;;;;5.10;1.60;;;;;;;;;;5079195;28;20511;-71
2023/03/24 12:44:06;;;;;;;7.10;1.67;;;;;;;;;;5077409;28;20468;-71
2023/03/24 12:46:41;;;;;;;5.60;1.97;;;;;;;;;;5079599;28;20503;-71
2023/03/24 12:49:26;;;;;;;6.87;1.83;;;;;;;;;;5080037;28;20457;-71
2023/03/24 12:51:59;;;;;;;11.13;2.10;;;;;;;;;;5079868;28;20504;-71
2023/03/24 12:54:33;;;;;;;8.53;2.57;;;;;;;;;;5080504;28;20501;-69
2023/03/24 12:57:01;;;;;;;5.53;2.07;;;;;;;;;;5076375;28;20543;-71
2023/03/24 12:59:31;;;;;;;5.70;2.07;;;;;;;;;;5079735;28;20474;-71
2023/03/24 13:02:09;;;;;;;6.43;2.10;;;;;;;;;;5065745;28;20499;-71
2023/03/24 13:04:39;;;;;;;3.70;1.50;;;;;;;;;;5060717;28;20475;-71
2023/03/24 13:07:07;;;;;;;3.17;1.83;;;;;;;;;;5051216;28;20484;-71
2023/03/24 13:09:38;;;;;;;4.63;1.33;;;;;;;;;;5060310;28;20487;-71
2023/03/24 13:12:07;;;;;;;4.67;1.70;;;;;;;;;;5058626;28;20910;-70
2023/03/24 13:14:38;;;;;;;6.70;2.07;;;;;;;;;;5056014;28;20452;-70
2023/03/24 13:17:13;;;;;;;12.07;1.90;;;;;;;;;;5059534;28;20854;-70
2023/03/24 13:19:40;;;;;;;7.60;1.90;;;;;;;;;;5059987;28;20503;-70
2023/03/24 13:22:11;;;;;;;5.43;2.40;;;;;;;;;;5058363;28;20542;-70
2023/03/24 13:24:37;;;;;;;6.83;2.10;;;;;;;;;;5059466;28;20464;-70
2023/03/24 13:27:09;;;;;;;5.17;1.83;;;;;;;;;;5058720;28;20509;-71
2023/03/24 13:29:47;;;;;;;13.73;3.00;;;;;;;;;;5058335;28;20465;-71
2023/03/24 13:32:18;;;;;;;2.97;1.40;;;;;;;;;;5069263;28;20487;-70
2023/03/24 13:34:47;;;;;;;5.50;1.43;;;;;;;;;;5069261;28;20480;-70
2023/03/24 13:37:15;;;;;;;7.20;1.40;;;;;;;;;;5058332;28;20499;-70
2023/03/24 13:39:44;;;;;;;3.73;1.73;;;;;;;;;;5058770;28;20457;-70
2023/03/24 13:42:27;;;;;;;3.60;1.20;;;;;;;;;;5065926;28;20481;-70
2023/03/24 13:44:54;;;;;;;5.30;1.97;;;;;;;;;;5062946;28;20456;-70
2023/03/24 13:47:21;;;;;;;3.80;1.83;;;;;;;;;;5060653;28;20484;-70
2023/03/24 13:49:53;;;;;;;7.53;1.77;;;;;;;;;;5058479;28;20996;-71
2023/03/24 13:52:22;;;;;;;8.03;2.03;;;;;;;;;;5058605;28;20884;-69
2023/03/24 13:54:49;;;;;;;5.77;1.83;;;;;;;;;;5060004;28;20495;-70
2023/03/24 13:57:19;;;;;;;3.17;1.50;;;;;;;;;;5058601;28;20567;-70
2023/03/24 14:00:00;;;;;;;6.70;1.80;;;;;;;;;;5058077;28;20461;-70
2023/03/24 14:02:48;;;;;;;7.57;1.70;;;;;;;;;;5074978;28;20480;-71
2023/03/24 14:05:30;;;;;;;4.67;1.60;;;;;;;;;;5073098;28;20482;-70
2023/03/24 14:08:10;;;;;;;4.23;1.67;;;;;;;;;;5079457;28;20473;-70
2023/03/24 14:10:41;;;;;;;2.47;1.63;;;;;;;;;;5079399;28;20524;-70
2023/03/24 14:13:23;;;;;;;4.40;2.00;;;;;;;;;;5069465;28;20460;-70
2023/03/24 14:15:50;;;;;;;6.20;1.63;;;;;;;;;;5076117;28;20464;-70
2023/03/24 14:18:38;;;;;;;5.03;1.73;;;;;;;;;;5078372;28;20492;-70
2023/03/24 14:21:07;;;;;;;4.07;1.53;;;;;;;;;;5069306;28;20475;-69
2023/03/24 14:23:36;;;;;;;3.70;1.63;;;;;;;;;;5082660;28;20482;-69
2023/03/24 14:26:03;;;;;;;4.77;2.00;;;;;;;;;;5081414;28;20902;-69
2023/03/24 14:28:31;;;;;;;9.90;2.10;;;;;;;;;;5081369;28;20491;-71
2023/03/24 14:31:02;;;;;;;4.60;1.53;;;;;;;;;;5081569;28;20514;-69
2023/03/24 14:33:29;;;;;;;5.50;1.77;;;;;;;;;;5081802;28;20458;-71
2023/03/24 14:35:58;;;;;;;8.27;2.20;;;;;;;;;;5081441;28;20476;-70
2023/03/24 14:38:27;;;;;;;4.17;1.70;;;;;;;;;;5081473;28;20487;-70
2023/03/24 14:40:57;;;;;;;5.87;1.90;;;;;;;;;;5081036;28;20546;-70
2023/03/24 14:43:24;;;;;;;9.50;1.83;;;;;;;;;;5080791;28;20492;-71
2023/03/24 14:45:54;;;;;;;6.40;2.43;;;;;;;;;;5081437;28;20476;-70
2023/03/24 14:48:29;;;;;;;4.27;1.63;;;;;;;;;;5082509;28;20586;-70
2023/03/24 14:50:58;;;;;;;6.50;1.90;;;;;;;;;;5074765;28;20630;-70
2023/03/24 14:53:26;;;;;;;3.53;1.33;;;;;;;;;;5081369;28;20476;-69
2023/03/24 14:55:53;;;;;;;3.40;2.03;;;;;;;;;;5082196;28;20544;-69